sensor_id;sensor_type;location;lat;lon;timestamp;P1;durP1;ratioP1;P2;durP2;ratioP2
46377;SDS011;32083;47.360;9.650;2024-03-23T05:01:11;1.08;;;0.98;;
46377;SDS011;32083;47.360;9.650;2024-03-23T05:03:37;3.60;;;1.27;;
46377;SDS011;32083;47.360;9.650;2024-03-23T05:06:03;2.05;;;1.00;;
46377;SDS011;32083;47.360;9.650;2024-03-23T05:08:30;1.50;;;1.00;;
46377;SDS011;32083;47.360;9.650;2024-03-23T05:10:56;1.95;;;1.63;;
46377;SDS011;32083;47.360;9.650;2024-03-23T05:13:24;2.35;;;1.27;;
46377;SDS011;32083;47.360;9.650;2024-03-23T05:15:53;4.35;;;2.30;;
46377;SDS011;32083;47.360;9.650;2024-03-23T05:18:20;2.85;;;1.00;;
46377;SDS011;32083;47.360;9.650;2024-03-23T05:20:46;2.15;;;1.02;;
46377;SDS011;32083;47.360;9.650;2024-03-23T05:23:12;1.73;;;1.17;;
46377;SDS011;32083;47.360;9.650;2024-03-23T05:25:38;2.17;;;1.17;;
46377;SDS011;32083;47.360;9.650;2024-03-23T05:28:04;2.33;;;1.13;;
46377;SDS011;32083;47.360;9.650;2024-03-23T05:30:31;1.23;;;1.05;;
46377;SDS011;32083;47.360;9.650;2024-03-23T05:32:57;1.92;;;1.60;;
46377;SDS011;32083;47.360;9.650;2024-03-23T05:35:23;4.07;;;1.48;;
46377;SDS011;32083;47.360;9.650;2024-03-23T05:37:49;2.63;;;1.00;;
46377;SDS011;32083;47.360;9.650;2024-03-23T05:40:15;3.10;;;1.20;;
46377;SDS011;32083;47.360;9.650;2024-03-23T05:42:41;1.70;;;0.95;;
46377;SDS011;32083;47.360;9.650;2024-03-23T05:45:08;1.80;;;0.90;;
46377;SDS011;32083;47.360;9.650;2024-03-23T05:47:34;1.00;;;0.80;;
46377;SDS011;32083;47.360;9.650;2024-03-23T05:50:00;1.20;;;1.00;;
46377;SDS011;32083;47.360;9.650;2024-03-23T05:52:27;1.85;;;1.00;;
46377;SDS011;32083;47.360;9.650;2024-03-23T05:54:53;2.38;;;0.95;;
46377;SDS011;32083;47.360;9.650;2024-03-23T05:57:19;1.30;;;0.98;;
46377;SDS011;32083;47.360;9.650;2024-03-23T05:59:45;2.50;;;1.30;;
46377;SDS011;32083;47.360;9.650;2024-03-23T06:02:11;1.33;;;0.93;;
46377;SDS011;32083;47.360;9.650;2024-03-23T06:04:38;2.58;;;1.20;;
46377;SDS011;32083;47.360;9.650;2024-03-23T06:07:04;1.50;;;0.80;;
46377;SDS011;32083;47.360;9.650;2024-03-23T06:09:38;1.25;;;0.70;;
46377;SDS011;32083;47.360;9.650;2024-03-23T06:12:05;2.10;;;1.33;;
46377;SDS011;32083;47.360;9.650;2024-03-23T06:14:31;2.08;;;1.55;;
46377;SDS011;32083;47.360;9.650;2024-03-23T06:16:58;2.78;;;1.55;;
46377;SDS011;32083;47.360;9.650;2024-03-23T06:19:25;2.00;;;1.33;;
46377;SDS011;32083;47.360;9.650;2024-03-23T06:21:53;1.48;;;1.05;;
46377;SDS011;32083;47.360;9.650;2024-03-23T06:24:21;3.03;;;1.10;;
46377;SDS011;32083;47.360;9.650;2024-03-23T06:26:47;1.60;;;1.20;;
46377;SDS011;32083;47.360;9.650;2024-03-23T06:29:13;1.55;;;1.00;;
46377;SDS011;32083;47.360;9.650;2024-03-23T06:31:39;1.50;;;1.02;;
46377;SDS011;32083;47.360;9.650;2024-03-23T06:34:05;1.90;;;1.40;;
46377;SDS011;32083;47.360;9.650;2024-03-23T06:36:31;1.80;;;1.10;;
46377;SDS011;32083;47.360;9.650;2024-03-23T06:38:58;1.92;;;1.40;;
46377;SDS011;32083;47.360;9.650;2024-03-23T06:41:24;2.20;;;1.27;;
46377;SDS011;32083;47.360;9.650;2024-03-23T06:43:51;2.30;;;1.25;;
46377;SDS011;32083;47.360;9.650;2024-03-23T06:46:17;2.75;;;1.50;;
46377;SDS011;32083;47.360;9.650;2024-03-23T06:48:44;2.65;;;1.35;;
46377;SDS011;32083;47.360;9.650;2024-03-23T06:51:11;1.70;;;1.30;;
46377;SDS011;32083;47.360;9.650;2024-03-23T06:53:37;1.85;;;1.33;;
46377;SDS011;32083;47.360;9.650;2024-03-23T06:56:03;1.90;;;1.13;;
46377;SDS011;32083;47.360;9.650;2024-03-23T06:58:29;1.67;;;1.10;;
46377;SDS011;32083;47.360;9.650;2024-03-23T07:00:55;3.15;;;2.00;;
46377;SDS011;32083;47.360;9.650;2024-03-23T07:03:21;5.45;;;2.22;;
46377;SDS011;32083;47.360;9.650;2024-03-23T07:05:47;4.90;;;2.10;;
46377;SDS011;32083;47.360;9.650;2024-03-23T07:08:13;4.25;;;2.20;;
46377;SDS011;32083;47.360;9.650;2024-03-23T07:10:43;2.92;;;1.63;;
46377;SDS011;32083;47.360;9.650;2024-03-23T07:13:09;2.95;;;1.75;;
46377;SDS011;32083;47.360;9.650;2024-03-23T07:15:35;5.47;;;2.75;;
46377;SDS011;32083;47.360;9.650;2024-03-23T07:18:01;2.70;;;1.55;;
46377;SDS011;32083;47.360;9.650;2024-03-23T07:20:28;5.22;;;2.97;;
46377;SDS011;32083;47.360;9.650;2024-03-23T07:22:55;2.15;;;1.45;;
46377;SDS011;32083;47.360;9.650;2024-03-23T07:25:21;5.75;;;1.88;;
46377;SDS011;32083;47.360;9.650;2024-03-23T07:27:48;3.38;;;1.90;;
46377;SDS011;32083;47.360;9.650;2024-03-23T07:30:14;3.22;;;2.30;;
46377;SDS011;32083;47.360;9.650;2024-03-23T07:32:41;4.50;;;2.33;;
46377;SDS011;32083;47.360;9.650;2024-03-23T07:35:10;2.88;;;1.70;;
46377;SDS011;32083;47.360;9.650;2024-03-23T07:37:36;3.05;;;1.95;;
46377;SDS011;32083;47.360;9.650;2024-03-23T07:40:02;2.65;;;1.80;;
46377;SDS011;32083;47.360;9.650;2024-03-23T07:42:29;3.22;;;2.10;;
46377;SDS011;32083;47.360;9.650;2024-03-23T07:44:55;5.22;;;2.42;;
46377;SDS011;32083;47.360;9.650;2024-03-23T07:47:22;5.03;;;2.60;;
46377;SDS011;32083;47.360;9.650;2024-03-23T07:49:48;2.20;;;1.35;;
46377;SDS011;32083;47.360;9.650;2024-03-23T07:52:14;1.10;;;0.90;;
46377;SDS011;32083;47.360;9.650;2024-03-23T07:54:40;1.17;;;0.70;;
46377;SDS011;32083;47.360;9.650;2024-03-23T07:57:06;3.00;;;0.60;;
46377;SDS011;32083;47.360;9.650;2024-03-23T07:59:32;1.52;;;0.90;;
46377;SDS011;32083;47.360;9.650;2024-03-23T08:01:59;1.40;;;0.70;;
46377;SDS011;32083;47.360;9.650;2024-03-23T08:04:27;1.55;;;1.02;;
46377;SDS011;32083;47.360;9.650;2024-03-23T08:06:53;0.90;;;0.60;;
46377;SDS011;32083;47.360;9.650;2024-03-23T08:09:19;1.52;;;0.95;;
46377;SDS011;32083;47.360;9.650;2024-03-23T08:11:46;1.50;;;0.93;;
46377;SDS011;32083;47.360;9.650;2024-03-23T08:14:12;1.02;;;0.70;;
46377;SDS011;32083;47.360;9.650;2024-03-23T08:16:38;1.92;;;0.73;;
46377;SDS011;32083;47.360;9.650;2024-03-23T08:19:04;3.08;;;1.50;;
46377;SDS011;32083;47.360;9.650;2024-03-23T08:21:30;1.40;;;0.70;;
46377;SDS011;32083;47.360;9.650;2024-03-23T08:23:56;2.65;;;1.20;;
46377;SDS011;32083;47.360;9.650;2024-03-23T08:26:22;1.58;;;1.08;;
46377;SDS011;32083;47.360;9.650;2024-03-23T08:28:48;1.00;;;0.80;;
46377;SDS011;32083;47.360;9.650;2024-03-23T08:31:14;2.08;;;1.13;;
46377;SDS011;32083;47.360;9.650;2024-03-23T08:33:40;2.13;;;0.98;;
46377;SDS011;32083;47.360;9.650;2024-03-23T08:36:08;1.10;;;0.65;;
46377;SDS011;32083;47.360;9.650;2024-03-23T08:38:37;1.52;;;0.68;;
46377;SDS011;32083;47.360;9.650;2024-03-23T08:41:08;1.95;;;1.25;;
46377;SDS011;32083;47.360;9.650;2024-03-23T08:43:36;3.05;;;1.38;;
46377;SDS011;32083;47.360;9.650;2024-03-23T08:48:31;1.20;;;0.82;;
46377;SDS011;32083;47.360;9.650;2024-03-23T08:51:03;2.70;;;2.40;;
46377;SDS011;32083;47.360;9.650;2024-03-23T08:53:30;1.33;;;1.10;;
46377;SDS011;32083;47.360;9.650;2024-03-23T08:55:56;1.60;;;1.25;;
46377;SDS011;32083;47.360;9.650;2024-03-23T08:58:23;1.98;;;1.40;;
46377;SDS011;32083;47.360;9.650;2024-03-23T09:00:51;1.80;;;1.40;;
46377;SDS011;32083;47.360;9.650;2024-03-23T09:03:18;1.23;;;0.95;;
46377;SDS011;32083;47.360;9.650;2024-03-23T09:05:44;0.80;;;0.80;;
46377;SDS011;32083;47.360;9.650;2024-03-23T09:08:10;1.33;;;1.10;;
46377;SDS011;32083;47.360;9.650;2024-03-23T09:10:39;2.85;;;1.25;;
46377;SDS011;32083;47.360;9.650;2024-03-23T09:13:06;2.30;;;1.35;;
46377;SDS011;32083;47.360;9.650;2024-03-23T09:15:35;1.40;;;0.98;;
46377;SDS011;32083;47.360;9.650;2024-03-23T09:18:02;1.98;;;0.50;;
46377;SDS011;32083;47.360;9.650;2024-03-23T09:20:32;1.08;;;0.60;;
46377;SDS011;32083;47.360;9.650;2024-03-23T09:22:58;1.27;;;0.52;;
46377;SDS011;32083;47.360;9.650;2024-03-23T09:25:25;1.20;;;0.85;;
46377;SDS011;32083;47.360;9.650;2024-03-23T09:27:51;0.95;;;0.30;;
46377;SDS011;32083;47.360;9.650;2024-03-23T09:30:17;2.55;;;0.40;;
46377;SDS011;32083;47.360;9.650;2024-03-23T09:32:45;0.70;;;0.38;;
46377;SDS011;32083;47.360;9.650;2024-03-23T09:35:11;0.50;;;0.47;;
46377;SDS011;32083;47.360;9.650;2024-03-23T09:37:38;3.38;;;0.73;;
46377;SDS011;32083;47.360;9.650;2024-03-23T09:40:10;0.47;;;0.47;;
46377;SDS011;32083;47.360;9.650;2024-03-23T09:42:39;0.57;;;0.32;;
46377;SDS011;32083;47.360;9.650;2024-03-23T09:45:13;0.70;;;0.32;;
46377;SDS011;32083;47.360;9.650;2024-03-23T09:47:45;0.90;;;0.75;;
46377;SDS011;32083;47.360;9.650;2024-03-23T09:50:12;1.48;;;0.43;;
46377;SDS011;32083;47.360;9.650;2024-03-23T09:52:39;0.80;;;0.40;;
46377;SDS011;32083;47.360;9.650;2024-03-23T09:55:07;1.58;;;0.30;;
46377;SDS011;32083;47.360;9.650;2024-03-23T09:57:34;0.55;;;0.30;;
46377;SDS011;32083;47.360;9.650;2024-03-23T10:00:00;1.20;;;0.30;;
46377;SDS011;32083;47.360;9.650;2024-03-23T10:02:26;1.95;;;0.65;;
46377;SDS011;32083;47.360;9.650;2024-03-23T10:04:54;0.65;;;0.40;;
46377;SDS011;32083;47.360;9.650;2024-03-23T10:07:20;0.90;;;0.30;;
46377;SDS011;32083;47.360;9.650;2024-03-23T10:09:50;1.05;;;0.50;;
46377;SDS011;32083;47.360;9.650;2024-03-23T10:12:17;0.63;;;0.32;;
46377;SDS011;32083;47.360;9.650;2024-03-23T10:14:44;1.48;;;1.08;;
46377;SDS011;32083;47.360;9.650;2024-03-23T10:17:18;0.88;;;0.60;;
46377;SDS011;32083;47.360;9.650;2024-03-23T10:22:22;1.55;;;0.47;;
46377;SDS011;32083;47.360;9.650;2024-03-23T10:24:49;0.77;;;0.50;;
46377;SDS011;32083;47.360;9.650;2024-03-23T10:27:16;1.63;;;0.60;;
46377;SDS011;32083;47.360;9.650;2024-03-23T10:29:46;0.95;;;0.60;;
46377;SDS011;32083;47.360;9.650;2024-03-23T10:32:16;0.88;;;0.45;;
46377;SDS011;32083;47.360;9.650;2024-03-23T10:34:43;1.48;;;0.90;;
46377;SDS011;32083;47.360;9.650;2024-03-23T10:37:09;1.63;;;0.90;;
46377;SDS011;32083;47.360;9.650;2024-03-23T10:42:05;0.73;;;0.57;;
46377;SDS011;32083;47.360;9.650;2024-03-23T10:44:33;1.85;;;0.32;;
46377;SDS011;32083;47.360;9.650;2024-03-23T10:47:00;1.83;;;0.60;;
46377;SDS011;32083;47.360;9.650;2024-03-23T10:49:27;0.70;;;0.40;;
46377;SDS011;32083;47.360;9.650;2024-03-23T10:51:55;1.70;;;0.70;;
46377;SDS011;32083;47.360;9.650;2024-03-23T10:54:32;2.28;;;1.83;;
46377;SDS011;32083;47.360;9.650;2024-03-23T10:57:06;5.03;;;1.80;;
46377;SDS011;32083;47.360;9.650;2024-03-23T10:59:36;5.20;;;1.10;;
46377;SDS011;32083;47.360;9.650;2024-03-23T11:02:03;1.73;;;1.00;;
46377;SDS011;32083;47.360;9.650;2024-03-23T11:04:30;2.70;;;1.10;;
46377;SDS011;32083;47.360;9.650;2024-03-23T11:09:52;3.50;;;1.75;;
46377;SDS011;32083;47.360;9.650;2024-03-23T11:14:58;2.10;;;1.70;;
46377;SDS011;32083;47.360;9.650;2024-03-23T11:17:26;4.97;;;1.30;;
46377;SDS011;32083;47.360;9.650;2024-03-23T11:19:54;3.83;;;1.42;;
46377;SDS011;32083;47.360;9.650;2024-03-23T11:25:13;3.17;;;1.55;;
46377;SDS011;32083;47.360;9.650;2024-03-23T11:27:39;5.00;;;1.58;;
46377;SDS011;32083;47.360;9.650;2024-03-23T11:30:15;3.30;;;1.20;;
46377;SDS011;32083;47.360;9.650;2024-03-23T11:32:43;2.97;;;1.83;;
46377;SDS011;32083;47.360;9.650;2024-03-23T11:35:24;4.85;;;1.45;;
46377;SDS011;32083;47.360;9.650;2024-03-23T11:38:16;2.63;;;1.90;;
46377;SDS011;32083;47.360;9.650;2024-03-23T11:40:50;4.00;;;1.60;;
46377;SDS011;32083;47.360;9.650;2024-03-23T11:43:19;6.27;;;1.83;;
46377;SDS011;32083;47.360;9.650;2024-03-23T11:45:51;5.85;;;1.60;;
46377;SDS011;32083;47.360;9.650;2024-03-23T11:48:22;9.02;;;2.00;;
46377;SDS011;32083;47.360;9.650;2024-03-23T11:50:49;2.25;;;1.30;;
46377;SDS011;32083;47.360;9.650;2024-03-23T11:53:23;2.63;;;1.17;;
46377;SDS011;32083;47.360;9.650;2024-03-23T11:55:55;2.35;;;1.10;;
46377;SDS011;32083;47.360;9.650;2024-03-23T11:58:23;8.35;;;1.42;;
46377;SDS011;32083;47.360;9.650;2024-03-23T12:01:00;11.25;;;6.35;;
46377;SDS011;32083;47.360;9.650;2024-03-23T12:03:28;3.05;;;1.17;;
46377;SDS011;32083;47.360;9.650;2024-03-23T12:05:56;4.43;;;1.98;;
46377;SDS011;32083;47.360;9.650;2024-03-23T12:13:42;4.32;;;2.05;;
46377;SDS011;32083;47.360;9.650;2024-03-23T12:18:37;5.78;;;2.47;;
46377;SDS011;32083;47.360;9.650;2024-03-23T12:21:05;6.03;;;1.65;;
46377;SDS011;32083;47.360;9.650;2024-03-23T12:23:32;6.63;;;1.70;;
46377;SDS011;32083;47.360;9.650;2024-03-23T12:25:58;7.50;;;1.52;;
46377;SDS011;32083;47.360;9.650;2024-03-23T12:28:24;6.30;;;1.73;;
46377;SDS011;32083;47.360;9.650;2024-03-23T12:30:51;4.43;;;1.48;;
46377;SDS011;32083;47.360;9.650;2024-03-23T12:33:20;3.05;;;1.55;;
46377;SDS011;32083;47.360;9.650;2024-03-23T12:35:50;6.20;;;2.72;;
46377;SDS011;32083;47.360;9.650;2024-03-23T12:38:17;4.40;;;1.58;;
46377;SDS011;32083;47.360;9.650;2024-03-23T12:40:46;7.68;;;3.70;;
46377;SDS011;32083;47.360;9.650;2024-03-23T12:43:15;4.28;;;1.90;;
46377;SDS011;32083;47.360;9.650;2024-03-23T12:45:48;3.50;;;1.98;;
46377;SDS011;32083;47.360;9.650;2024-03-23T12:48:18;5.93;;;1.67;;
46377;SDS011;32083;47.360;9.650;2024-03-23T12:50:44;4.50;;;1.73;;
46377;SDS011;32083;47.360;9.650;2024-03-23T12:53:10;5.10;;;1.63;;
46377;SDS011;32083;47.360;9.650;2024-03-23T12:55:36;5.88;;;1.67;;
46377;SDS011;32083;47.360;9.650;2024-03-23T12:58:02;6.57;;;2.30;;
46377;SDS011;32083;47.360;9.650;2024-03-23T13:00:28;7.57;;;2.20;;
46377;SDS011;32083;47.360;9.650;2024-03-23T13:02:54;7.18;;;2.17;;
46377;SDS011;32083;47.360;9.650;2024-03-23T13:05:20;5.57;;;1.90;;
46377;SDS011;32083;47.360;9.650;2024-03-23T13:07:46;4.55;;;1.92;;
46377;SDS011;32083;47.360;9.650;2024-03-23T13:10:12;3.85;;;1.90;;
46377;SDS011;32083;47.360;9.650;2024-03-23T13:12:39;4.68;;;1.95;;
46377;SDS011;32083;47.360;9.650;2024-03-23T13:15:07;5.28;;;1.63;;
46377;SDS011;32083;47.360;9.650;2024-03-23T13:17:34;9.77;;;2.70;;
46377;SDS011;32083;47.360;9.650;2024-03-23T13:20:00;4.97;;;3.25;;
46377;SDS011;32083;47.360;9.650;2024-03-23T13:22:26;4.72;;;1.45;;
46377;SDS011;32083;47.360;9.650;2024-03-23T13:24:52;5.10;;;1.92;;
46377;SDS011;32083;47.360;9.650;2024-03-23T13:27:18;3.95;;;1.63;;
46377;SDS011;32083;47.360;9.650;2024-03-23T13:29:44;6.80;;;1.30;;
